Time;durP1;ratioP1;P1;durP2;ratioP2;P2;SDS_P1;SDS_P2;PMS_P1;PMS_P2;Temp;Humidity;BMP_temperature;BMP_pressure;BME280_temperature;BME280_humidity;BME280_pressure;Samples;Min_cycle;Max_cycle;Signal;HPM_P1;HPM_P2
2023/03/03 00:02:11;;;;;;;1.50;1.40;;;;;;;1.14;100.00;102082.44;10406945;28;20118;-76
2023/03/03 00:07:20;;;;;;;0.95;0.47;;;;;;;0.84;100.00;102090.16;10388717;28;20076;-76
2023/03/03 00:12:24;;;;;;;0.38;0.38;;;;;;;1.08;100.00;102088.78;10407734;28;20049;-76
2023/03/03 00:17:29;;;;;;;4.93;0.68;;;;;;;0.98;100.00;102098.06;10407641;28;20084;-77
2023/03/03 00:22:35;;;;;;;1.48;1.23;;;;;;;0.97;100.00;102101.34;10387283;28;20053;-77
2023/03/03 00:27:37;;;;;;;0.35;0.35;;;;;;;1.17;100.00;102091.19;10382452;28;20061;-76
2023/03/03 00:32:49;;;;;;;4.43;4.03;;;;;;;1.01;100.00;102088.13;10390872;28;20128;-76
2023/03/03 00:37:54;;;;;;;0.17;0.17;;;;;;;1.07;100.00;102091.22;10384428;28;20061;-77
2023/03/03 00:42:59;;;;;;;0.45;0.45;;;;;;;1.03;100.00;102091.69;10387598;28;20034;-77
2023/03/03 00:48:18;;;;;;;0.10;0.10;;;;;;;1.10;100.00;102089.81;10377579;28;20107;-76
2023/03/03 00:53:22;;;;;;;1.42;1.33;;;;;;;1.25;100.00;102090.19;10390802;28;20049;-77
2023/03/03 00:58:24;;;;;;;0.95;0.68;;;;;;;1.01;100.00;102098.28;10398892;28;20079;-77
2023/03/03 01:03:26;;;;;;;2.55;0.90;;;;;;;1.16;100.00;102099.56;10394340;28;20045;-77
2023/03/03 01:08:28;;;;;;;0.30;0.30;;;;;;;1.32;100.00;102095.75;10378352;28;20051;-77
2023/03/03 01:13:33;;;;;;;0.40;0.40;;;;;;;1.18;100.00;102098.06;10389939;28;20066;-77
2023/03/03 01:18:40;;;;;;;0.43;0.43;;;;;;;1.15;100.00;102105.44;10365315;28;20037;-77
2023/03/03 01:23:42;;;;;;;0.10;0.10;;;;;;;1.22;100.00;102109.34;10383813;28;20471;-76
2023/03/03 01:28:43;;;;;;;0.50;0.45;;;;;;;0.95;100.00;102091.94;10404064;28;20393;-78
2023/03/03 01:33:45;;;;;;;1.42;1.20;;;;;;;1.12;100.00;102087.41;10376398;28;20054;-77
2023/03/03 01:38:47;;;;;;;0.45;0.45;;;;;;;1.35;100.00;102088.41;10391235;28;20047;-77
2023/03/03 01:43:49;;;;;;;2.53;0.52;;;;;;;1.33;100.00;102098.47;10383043;28;20033;-76
2023/03/03 01:48:55;;;;;;;0.03;0.03;;;;;;;1.29;100.00;102104.03;10433890;28;20046;-76
2023/03/03 01:53:59;;;;;;;0.47;0.45;;;;;;;1.58;100.00;102096.28;10379273;28;20084;-76
2023/03/03 01:59:06;;;;;;;1.02;0.68;;;;;;;1.22;100.00;102120.41;10398954;28;20467;-76
2023/03/03 02:04:10;;;;;;;2.15;1.98;;;;;;;0.99;100.00;102103.25;10398842;28;20064;-76
2023/03/03 02:09:42;;;;;;;2.10;1.08;;;;;;;0.84;100.00;102100.31;10407153;28;20045;-76
2023/03/03 02:14:44;;;;;;;8.35;1.45;;;;;;;0.78;100.00;102107.41;10448352;28;20412;-76
2023/03/03 02:20:13;;;;;;;0.90;0.77;;;;;;;0.91;100.00;102106.78;10432584;28;20099;-75
2023/03/03 02:25:29;;;;;;;1.35;1.20;;;;;;;1.00;100.00;102116.84;10422811;28;20103;-76
2023/03/03 02:30:37;;;;;;;2.08;0.52;;;;;;;1.06;100.00;102115.69;10394609;28;20069;-76
2023/03/03 02:35:40;;;;;;;1.08;0.60;;;;;;;1.21;100.00;102113.56;10403561;28;20046;-76
2023/03/03 02:40:55;;;;;;;0.75;0.73;;;;;;;1.35;100.00;102127.38;10423259;28;20079;-77
2023/03/03 02:45:59;;;;;;;0.00;0.00;;;;;;;1.34;100.00;102119.66;10420099;28;20037;-76
2023/03/03 02:51:03;;;;;;;0.93;0.90;;;;;;;1.37;100.00;102127.53;10428819;28;20056;-76
2023/03/03 02:56:06;;;;;;;0.25;0.25;;;;;;;1.31;100.00;102130.44;10425115;28;20112;-76
2023/03/03 03:01:07;;;;;;;0.65;0.65;;;;;;;1.36;100.00;102138.44;10416625;28;20041;-77
2023/03/03 03:06:10;;;;;;;1.30;0.65;;;;;;;1.48;100.00;102136.91;10405129;28;20041;-76
2023/03/03 03:11:12;;;;;;;0.65;0.65;;;;;;;1.42;100.00;102131.31;10403387;28;20588;-76
2023/03/03 03:16:14;;;;;;;0.10;0.10;;;;;;;1.62;100.00;102139.69;10373705;28;20072;-76
2023/03/03 03:21:16;;;;;;;0.25;0.25;;;;;;;1.57;100.00;102159.63;10418084;28;20041;-76
2023/03/03 03:26:19;;;;;;;0.38;0.38;;;;;;;1.63;100.00;102154.16;10410517;28;20049;-76
2023/03/03 03:31:24;;;;;;;0.20;0.20;;;;;;;1.67;100.00;102156.22;10406279;28;20049;-77
2023/03/03 03:36:27;;;;;;;0.85;0.63;;;;;;;1.63;100.00;102156.72;10409957;28;20037;-76
2023/03/03 03:41:29;;;;;;;1.48;1.02;;;;;;;1.71;100.00;102158.25;10403146;28;20092;-76
2023/03/03 03:46:30;;;;;;;0.20;0.20;;;;;;;1.82;100.00;102160.03;10392642;28;20481;-76
2023/03/03 03:51:34;;;;;;;0.55;0.45;;;;;;;1.69;100.00;102163.19;10417691;28;20045;-76
2023/03/03 03:56:37;;;;;;;2.17;1.00;;;;;;;1.80;100.00;102164.06;10426147;28;20090;-76
2023/03/03 04:01:39;;;;;;;1.55;1.45;;;;;;;1.92;100.00;102158.19;10401037;28;20053;-76
2023/03/03 04:06:41;;;;;;;0.40;0.40;;;;;;;1.84;100.00;102161.00;10408350;28;20075;-76
2023/03/03 04:11:42;;;;;;;0.25;0.25;;;;;;;1.80;100.00;102169.16;10433976;28;20054;-76
2023/03/03 04:16:46;;;;;;;1.27;1.17;;;;;;;1.75;100.00;102167.88;10427201;28;20087;-75
2023/03/03 04:21:48;;;;;;;0.90;0.43;;;;;;;1.83;100.00;102166.84;10410210;28;20045;-74
2023/03/03 04:26:50;;;;;;;0.47;0.47;;;;;;;1.96;100.00;102165.34;10376830;28;20440;-75
2023/03/03 04:31:52;;;;;;;1.25;1.15;;;;;;;1.86;100.00;102159.50;10398144;28;20409;-74
2023/03/03 04:36:54;;;;;;;1.15;1.08;;;;;;;1.84;100.00;102171.16;10379917;28;20441;-75
2023/03/03 04:41:56;;;;;;;0.52;0.38;;;;;;;1.77;100.00;102163.81;10422452;28;20116;-76
2023/03/03 04:46:58;;;;;;;1.92;0.88;;;;;;;1.88;100.00;102167.22;10363143;28;20101;-75
2023/03/03 04:52:00;;;;;;;0.77;0.73;;;;;;;2.09;100.00;102160.47;10412091;28;20072;-75
2023/03/03 04:57:03;;;;;;;0.32;0.32;;;;;;;1.85;100.00;102160.25;10380969;28;20045;-74
2023/03/03 05:02:06;;;;;;;0.65;0.65;;;;;;;1.98;100.00;102159.59;10414202;28;20046;-74
2023/03/03 05:07:08;;;;;;;1.95;1.35;;;;;;;2.17;100.00;102169.59;10410118;28;20034;-75
2023/03/03 05:12:10;;;;;;;3.47;0.85;;;;;;;2.03;100.00;102158.31;10385870;28;20124;-75
2023/03/03 05:17:11;;;;;;;1.98;0.88;;;;;;;2.17;100.00;102159.44;10408971;28;20037;-76
2023/03/03 05:22:13;;;;;;;2.95;1.45;;;;;;;2.01;100.00;102170.00;10395151;28;20053;-76
2023/03/03 05:27:15;;;;;;;0.52;0.52;;;;;;;1.95;100.00;102163.56;10396246;28;20092;-75
2023/03/03 05:32:17;;;;;;;0.30;0.30;;;;;;;2.09;100.00;102173.19;10413535;28;20038;-75
2023/03/03 05:37:19;;;;;;;0.20;0.15;;;;;;;2.05;100.00;102176.22;10414101;28;20087;-75
2023/03/03 05:42:20;;;;;;;0.30;0.30;;;;;;;1.93;100.00;102175.22;10395742;28;20533;-75
2023/03/03 05:47:22;;;;;;;0.10;0.10;;;;;;;1.93;100.00;102181.22;10413649;28;20042;-75
2023/03/03 05:52:24;;;;;;;0.68;0.68;;;;;;;2.03;100.00;102187.94;10396036;28;20045;-76
2023/03/03 05:57:25;;;;;;;1.45;0.82;;;;;;;2.27;100.00;102188.16;10386859;28;20107;-75
2023/03/03 06:02:27;;;;;;;3.15;1.75;;;;;;;2.15;100.00;102199.09;10378918;28;20045;-75
2023/03/03 06:07:28;;;;;;;0.55;0.50;;;;;;;2.17;100.00;102195.03;10399431;28;20049;-76
2023/03/03 06:12:30;;;;;;;0.25;0.25;;;;;;;2.28;100.00;102189.91;10389935;28;20054;-75
2023/03/03 06:17:32;;;;;;;0.45;0.45;;;;;;;2.16;100.00;102200.88;10390863;28;20058;-75
2023/03/03 06:22:34;;;;;;;0.93;0.82;;;;;;;1.91;100.00;102195.44;10411098;28;20054;-75
2023/03/03 06:27:35;;;;;;;0.15;0.15;;;;;;;1.99;100.00;102212.22;10414128;28;20477;-75
2023/03/03 06:32:37;;;;;;;0.03;0.03;;;;;;;2.27;100.00;102224.63;10419607;28;20040;-75
2023/03/03 06:37:39;;;;;;;1.65;1.23;;;;;;;2.20;100.00;102232.53;10395700;28;20041;-75
2023/03/03 06:42:41;;;;;;;2.10;0.90;;;;;;;2.42;100.00;102235.13;10387930;28;20068;-74
2023/03/03 06:47:42;;;;;;;1.58;1.02;;;;;;;2.42;100.00;102250.38;10393850;28;20108;-74
2023/03/03 06:52:44;;;;;;;0.35;0.30;;;;;;;2.19;100.00;102240.91;10390930;28;20037;-74
2023/03/03 06:57:46;;;;;;;0.77;0.77;;;;;;;2.32;100.00;102242.81;10415918;28;20054;-75
2023/03/03 07:02:56;;;;;;;0.30;0.30;;;;;;;1.95;100.00;102255.06;10393797;28;20426;-76
2023/03/03 07:07:58;;;;;;;1.33;0.82;;;;;;;2.06;100.00;102245.00;10389448;28;20045;-74
2023/03/03 07:13:23;;;;;;;0.10;0.10;;;;;;;2.17;100.00;102258.59;10396039;28;20045;-75
2023/03/03 07:18:56;;;;;;;1.10;1.02;;;;;;;2.36;100.00;102270.25;10380261;28;20096;-74
2023/03/03 07:24:00;;;;;;;0.85;0.85;;;;;;;2.27;100.00;102265.31;10387922;28;20107;-74
2023/03/03 07:29:25;;;;;;;0.00;0.00;;;;;;;2.61;100.00;102287.50;10414723;28;20037;-74
2023/03/03 07:34:39;;;;;;;0.88;0.70;;;;;;;2.43;100.00;102297.97;10400878;28;20550;-75
2023/03/03 07:39:44;;;;;;;1.23;0.40;;;;;;;2.41;100.00;102309.69;10418368;28;20041;-73
2023/03/03 07:44:47;;;;;;;1.20;0.88;;;;;;;2.41;100.00;102319.88;10418185;28;20440;-75
2023/03/03 07:49:51;;;;;;;4.18;3.15;;;;;;;2.80;100.00;102311.13;10417616;28;20052;-76
2023/03/03 07:54:55;;;;;;;0.85;0.77;;;;;;;2.62;100.00;102330.00;10415454;28;20056;-76
2023/03/03 08:00:15;;;;;;;0.30;0.30;;;;;;;2.70;100.00;102350.22;10392127;28;20080;-76
2023/03/03 08:05:28;;;;;;;0.10;0.10;;;;;;;2.38;100.00;102345.91;10405634;28;20068;-76
2023/03/03 08:10:40;;;;;;;0.47;0.47;;;;;;;2.57;100.00;102349.09;10382582;28;20053;-76
2023/03/03 08:15:47;;;;;;;5.13;1.42;;;;;;;2.87;100.00;102357.44;10392839;28;20088;-76
2023/03/03 08:20:55;;;;;;;2.35;1.75;;;;;;;2.50;100.00;102366.38;10412880;28;20038;-75
2023/03/03 08:25:56;;;;;;;1.92;0.75;;;;;;;2.51;100.00;102360.53;10366834;28;20489;-75
2023/03/03 08:30:58;;;;;;;0.20;0.20;;;;;;;2.47;100.00;102366.16;10376604;28;20089;-75
2023/03/03 08:36:18;;;;;;;0.82;0.57;;;;;;;2.88;100.00;102371.94;10383292;28;20049;-76
2023/03/03 08:41:20;;;;;;;0.38;0.38;;;;;;;2.67;100.00;102374.53;10409019;28;20553;-76
2023/03/03 08:46:22;;;;;;;0.63;0.63;;;;;;;2.96;100.00;102383.63;10382584;28;20052;-76
2023/03/03 08:51:29;;;;;;;0.47;0.47;;;;;;;2.96;100.00;102383.63;10392872;28;20049;-78
2023/03/03 08:56:31;;;;;;;1.38;1.27;;;;;;;2.97;100.00;102375.22;10383423;28;20052;-77
2023/03/03 09:01:35;;;;;;;1.95;0.60;;;;;;;3.06;100.00;102391.25;10381269;28;20107;-77
2023/03/03 09:06:38;;;;;;;0.85;0.85;;;;;;;3.20;100.00;102404.19;10408466;28;20049;-77
2023/03/03 09:11:39;;;;;;;0.20;0.20;;;;;;;3.30;100.00;102388.88;10389170;28;20077;-77
2023/03/03 09:16:49;;;;;;;0.13;0.13;;;;;;;3.35;100.00;102390.13;10387572;28;20049;-77
2023/03/03 09:21:53;;;;;;;0.63;0.57;;;;;;;3.69;100.00;102397.00;10406416;28;20057;-77
2023/03/03 09:26:58;;;;;;;0.98;0.52;;;;;;;3.34;100.00;102398.53;10407704;28;20683;-78
2023/03/03 09:32:20;;;;;;;0.22;0.22;;;;;;;2.78;100.00;102398.31;10391148;28;20076;-77
2023/03/03 09:37:23;;;;;;;1.15;0.95;;;;;;;3.00;100.00;102388.22;10405989;28;20311;-76
2023/03/03 09:42:41;;;;;;;1.65;0.93;;;;;;;3.45;100.00;102382.47;10409965;28;20389;-78
2023/03/03 09:48:11;;;;;;;0.47;0.45;;;;;;;3.86;100.00;102408.50;10377023;28;20071;-79
2023/03/03 09:53:40;;;;;;;2.83;0.90;;;;;;;4.53;100.00;102432.28;10385592;28;20049;-77
2023/03/03 09:59:11;;;;;;;1.45;1.35;;;;;;;4.02;100.00;102470.13;10404442;28;20108;-77
2023/03/03 10:04:37;;;;;;;0.15;0.15;;;;;;;4.55;100.00;102476.69;10404159;28;20051;-77
2023/03/03 10:09:53;;;;;;;1.10;1.02;;;;;;;5.00;100.00;102475.78;10373435;28;20045;-78
2023/03/03 10:15:13;;;;;;;0.05;0.05;;;;;;;4.55;100.00;102479.22;10389347;28;20546;-78
2023/03/03 10:20:34;;;;;;;0.38;0.30;;;;;;;4.68;100.00;102475.94;10384279;28;20124;-78
2023/03/03 10:26:08;;;;;;;0.98;0.75;;;;;;;4.98;100.00;102473.91;10399698;28;20038;-79
2023/03/03 10:31:25;;;;;;;12.77;1.23;;;;;;;4.57;100.00;102487.91;10400742;28;20411;-77
2023/03/03 10:36:38;;;;;;;0.63;0.53;;;;;;;4.75;100.00;102509.69;10402827;28;20539;-78
2023/03/03 10:42:11;;;;;;;0.10;0.10;;;;;;;4.54;100.00;102506.41;10416480;28;20049;-78
2023/03/03 10:47:23;;;;;;;1.85;1.60;;;;;;;4.52;100.00;102507.97;10407722;28;20071;-78
2023/03/03 10:52:36;;;;;;;2.08;0.95;;;;;;;5.22;100.00;102514.00;10379663;28;20147;-79
2023/03/03 10:58:00;;;;;;;1.40;0.57;;;;;;;5.41;100.00;102520.47;10384642;28;20737;-78
2023/03/03 11:03:23;;;;;;;1.83;0.70;;;;;;;5.45;100.00;102529.25;10378728;28;20103;-78
2023/03/03 11:08:50;;;;;;;1.35;0.90;;;;;;;4.78;100.00;102520.94;10383384;28;20061;-78
2023/03/03 11:13:58;;;;;;;2.17;0.80;;;;;;;6.30;100.00;102531.06;10407854;28;20034;-78
2023/03/03 11:19:28;;;;;;;0.32;0.32;;;;;;;6.48;100.00;102557.06;10392193;28;20073;-79
2023/03/03 11:25:00;;;;;;;1.07;0.87;;;;;;;7.28;100.00;102574.38;10394568;28;20060;-78
2023/03/03 11:30:24;;;;;;;0.93;0.77;;;;;;;8.08;100.00;102570.03;10400956;28;20296;-77
2023/03/03 11:35:34;;;;;;;0.38;0.38;;;;;;;7.65;100.00;102588.75;10396740;28;20498;-77
2023/03/03 11:41:02;;;;;;;0.93;0.68;;;;;;;8.02;100.00;102564.53;10398994;28;20057;-76
2023/03/03 11:46:36;;;;;;;2.40;0.90;;;;;;;9.03;100.00;102595.56;10414608;28;20042;-76
2023/03/03 11:52:01;;;;;;;1.70;0.98;;;;;;;9.49;100.00;102597.34;10389621;28;20050;-76
2023/03/03 11:57:26;;;;;;;1.42;0.75;;;;;;;8.60;100.00;102584.41;10398004;28;20091;-75
2023/03/03 12:02:43;;;;;;;1.75;1.05;;;;;;;9.55;100.00;102585.66;10391785;28;20132;-76
2023/03/03 12:08:14;;;;;;;0.90;0.77;;;;;;;7.77;100.00;102588.66;10379553;28;20053;-76
2023/03/03 12:13:49;;;;;;;1.93;0.50;;;;;;;8.97;100.00;102589.19;10395827;28;20053;-74
2023/03/03 12:19:10;;;;;;;0.35;0.30;;;;;;;10.26;100.00;102587.00;10370187;28;20037;-76
2023/03/03 12:24:26;;;;;;;0.50;0.50;;;;;;;9.00;100.00;102592.81;10390146;28;20144;-75
2023/03/03 12:29:49;;;;;;;1.45;0.52;;;;;;;9.91;100.00;102593.69;10395452;28;20048;-77
2023/03/03 12:35:02;;;;;;;1.65;0.75;;;;;;;11.29;100.00;102585.47;10416834;28;20049;-77
2023/03/03 12:40:14;;;;;;;2.67;1.30;;;;;;;10.51;100.00;102581.50;10397940;28;20045;-76
2023/03/03 12:45:38;;;;;;;0.70;0.40;;;;;;;10.30;100.00;102591.53;10416327;28;20049;-75
2023/03/03 12:51:08;;;;;;;2.58;0.85;;;;;;;11.71;100.00;102581.53;10397959;28;20587;-77
2023/03/03 12:56:22;;;;;;;0.95;0.55;;;;;;;11.04;100.00;102579.97;10436520;28;20072;-76
2023/03/03 13:01:51;;;;;;;1.23;0.77;;;;;;;10.36;100.00;102571.25;10405183;28;20492;-75
2023/03/03 13:07:09;;;;;;;0.45;0.22;;;;;;;9.89;100.00;102564.38;10418947;28;20053;-77
2023/03/03 13:12:34;;;;;;;0.93;0.70;;;;;;;10.53;100.00;102561.88;10416904;28;20095;-76
2023/03/03 13:17:46;;;;;;;0.68;0.47;;;;;;;10.52;100.00;102556.63;10392765;28;20211;-77
2023/03/03 13:23:16;;;;;;;0.00;0.00;;;;;;;10.90;100.00;102552.59;10408677;28;20045;-76
2023/03/03 13:28:34;;;;;;;7.82;1.05;;;;;;;9.84;100.00;102565.03;10393094;28;20042;-76
2023/03/03 13:33:36;;;;;;;0.85;0.68;;;;;;;8.68;100.00;102552.31;10392009;28;20052;-75
2023/03/03 13:38:47;;;;;;;0.08;0.08;;;;;;;8.72;100.00;102554.31;10394949;28;20444;-75
2023/03/03 13:43:56;;;;;;;3.80;0.50;;;;;;;8.04;100.00;102552.69;10406877;28;20059;-75
2023/03/03 13:49:05;;;;;;;0.38;0.30;;;;;;;9.14;100.00;102541.31;10389610;28;20056;-77
2023/03/03 13:54:31;;;;;;;0.35;0.28;;;;;;;9.31;100.00;102535.44;10418335;28;20045;-77
2023/03/03 14:00:10;;;;;;;0.38;0.35;;;;;;;9.80;100.00;102539.91;10412986;28;20037;-77
2023/03/03 14:05:26;;;;;;;0.32;0.13;;;;;;;8.91;100.00;102532.25;10385352;28;20149;-76
2023/03/03 14:10:47;;;;;;;0.28;0.13;;;;;;;9.07;100.00;102532.34;10416314;28;20048;-77
2023/03/03 14:16:12;;;;;;;0.20;0.20;;;;;;;8.37;100.00;102532.47;10383566;28;20049;-76
2023/03/03 14:21:23;;;;;;;0.77;0.15;;;;;;;7.85;100.00;102531.00;10400561;28;20043;-75
2023/03/03 14:26:25;;;;;;;0.00;0.00;;;;;;;8.06;100.00;102521.19;10399794;28;20045;-75
2023/03/03 14:31:39;;;;;;;0.10;0.10;;;;;;;7.73;100.00;102519.94;10402164;28;20058;-76
2023/03/03 14:36:43;;;;;;;0.35;0.35;;;;;;;7.76;100.00;102512.47;10412699;28;20061;-76
2023/03/03 14:41:47;;;;;;;1.42;0.45;;;;;;;7.33;100.00;102508.03;10400675;28;20099;-76
2023/03/03 14:47:19;;;;;;;1.13;0.65;;;;;;;7.38;100.00;102506.63;10415110;28;20700;-78
2023/03/03 14:52:24;;;;;;;0.13;0.05;;;;;;;7.59;100.00;102504.56;10392997;28;20076;-78
2023/03/03 14:57:39;;;;;;;0.00;0.00;;;;;;;7.63;100.00;102503.09;10394530;28;20051;-80
2023/03/03 15:02:42;;;;;;;0.10;0.10;;;;;;;7.19;100.00;102504.53;10389571;28;20108;-81
2023/03/03 15:07:47;;;;;;;0.00;0.00;;;;;;;7.37;100.00;102501.41;10391234;28;20447;-80
2023/03/03 15:12:52;;;;;;;0.13;0.05;;;;;;;7.60;100.00;102503.78;10388445;28;20065;-80
2023/03/03 15:18:07;;;;;;;0.35;0.28;;;;;;;7.28;100.00;102510.28;10410833;28;20045;-80
2023/03/03 15:23:42;;;;;;;0.20;0.20;;;;;;;7.37;100.00;102499.72;10386875;28;20057;-81
2023/03/03 15:29:06;;;;;;;0.00;0.00;;;;;;;7.70;100.00;102495.00;10408241;28;20076;-80
2023/03/03 15:34:33;;;;;;;0.00;0.00;;;;;;;7.57;100.00;102489.88;10393139;28;20132;-78
2023/03/03 15:39:48;;;;;;;0.15;0.10;;;;;;;7.46;100.00;102484.94;10375691;28;20510;-79
2023/03/03 15:45:17;;;;;;;0.05;0.03;;;;;;;7.77;100.00;102476.63;10399403;28;20580;-78
2023/03/03 15:50:43;;;;;;;0.00;0.00;;;;;;;7.68;100.00;102475.16;10411934;28;20041;-78
2023/03/03 15:56:08;;;;;;;0.00;0.00;;;;;;;7.45;100.00;102467.78;10416982;28;20041;-78
2023/03/03 16:01:31;;;;;;;0.13;0.13;;;;;;;7.36;100.00;102468.88;10379016;28;20068;-78
2023/03/03 16:06:53;;;;;;;0.30;0.20;;;;;;;7.17;100.00;102469.34;10404452;28;20042;-78
2023/03/03 16:12:03;;;;;;;0.00;0.00;;;;;;;7.35;100.00;102464.53;10402563;28;20033;-78
2023/03/03 16:17:19;;;;;;;;;;;;;;;7.08;100.00;102469.66;10380374;28;20056;-79
2023/03/03 16:22:46;;;;;;;0.00;0.00;;;;;;;7.29;100.00;102458.22;10391632;28;20423;-77
2023/03/03 16:28:09;;;;;;;0.00;0.00;;;;;;;7.19;100.00;102458.41;10409549;28;20071;-77
2023/03/03 16:33:20;;;;;;;0.10;0.10;;;;;;;7.21;100.00;102461.09;10386321;28;20448;-78
2023/03/03 16:38:31;;;;;;;0.00;0.00;;;;;;;7.15;100.00;102461.56;10436176;28;20115;-80
2023/03/03 16:43:49;;;;;;;0.00;0.00;;;;;;;7.63;100.00;102462.91;10426224;28;20045;-79
2023/03/03 16:49:15;;;;;;;0.00;0.00;;;;;;;7.14;100.00;102470.94;10382521;28;20087;-79
2023/03/03 16:54:36;;;;;;;0.00;0.00;;;;;;;7.21;100.00;102472.22;10372536;28;20111;-79
2023/03/03 17:00:03;;;;;;;0.10;0.03;;;;;;;7.15;100.00;102476.94;10379870;28;20057;-79
2023/03/03 17:05:20;;;;;;;0.25;0.10;;;;;;;7.06;100.00;102484.03;10398636;28;20041;-80
2023/03/03 17:10:26;;;;;;;0.22;0.10;;;;;;;6.78;100.00;102484.78;10398150;28;20481;-77
2023/03/03 17:15:46;;;;;;;1.08;0.95;;;;;;;6.67;100.00;102487.50;10396357;28;20053;-79
2023/03/03 17:20:50;;;;;;;0.10;0.10;;;;;;;6.87;100.00;102487.97;10381657;28;20452;-79
2023/03/03 17:25:57;;;;;;;0.00;0.00;;;;;;;6.94;100.00;102497.81;10409788;28;20116;-79
2023/03/03 17:31:11;;;;;;;0.00;0.00;;;;;;;6.98;100.00;102488.66;10397023;28;20045;-80
2023/03/03 17:36:53;;;;;;;2.47;0.52;;;;;;;6.86;100.00;102498.09;10411402;28;20449;-79
2023/03/03 17:42:10;;;;;;;0.17;0.10;;;;;;;6.94;100.00;102497.81;10399198;28;20041;-79
2023/03/03 17:47:24;;;;;;;0.00;0.00;;;;;;;6.80;100.00;102493.47;10403813;28;20046;-79
2023/03/03 17:52:56;;;;;;;0.10;0.10;;;;;;;6.88;100.00;102505.13;10397357;28;20057;-79
2023/03/03 17:58:17;;;;;;;0.00;0.00;;;;;;;6.69;100.00;102499.50;10405244;28;20046;-79
2023/03/03 18:03:21;;;;;;;0.13;0.13;;;;;;;6.61;100.00;102510.13;10387920;28;20053;-79
2023/03/03 18:09:07;;;;;;;0.00;0.00;;;;;;;6.51;100.00;102526.53;10396670;28;20159;-79
2023/03/03 18:14:41;;;;;;;0.10;0.10;;;;;;;6.40;100.00;102531.72;10383733;28;20061;-79
2023/03/03 18:19:58;;;;;;;0.00;0.00;;;;;;;6.39;100.00;102530.84;10360567;28;20046;-79
2023/03/03 18:25:08;;;;;;;0.98;0.77;;;;;;;6.35;100.00;102534.84;10396104;28;20033;-79
2023/03/03 18:30:16;;;;;;;0.00;0.00;;;;;;;6.49;100.00;102533.22;10389705;28;20111;-81
2023/03/03 18:35:20;;;;;;;0.20;0.20;;;;;;;6.39;100.00;102538.53;10405581;28;20092;-81
2023/03/03 18:40:31;;;;;;;0.85;0.43;;;;;;;6.39;100.00;102545.28;10410464;28;20136;-81
2023/03/03 18:45:33;;;;;;;0.47;0.40;;;;;;;6.37;100.00;102546.88;10388402;28;20496;-81
2023/03/03 18:50:39;;;;;;;0.28;0.13;;;;;;;6.18;100.00;102561.81;10413954;28;20079;-81
2023/03/03 18:55:48;;;;;;;0.15;0.15;;;;;;;6.19;100.00;102558.47;10407546;28;20503;-81
2023/03/03 19:00:53;;;;;;;0.10;0.10;;;;;;;6.29;100.00;102554.88;10393155;28;20049;-81
2023/03/03 19:05:59;;;;;;;1.20;0.75;;;;;;;6.38;100.00;102553.75;10383780;28;20087;-81
2023/03/03 19:11:02;;;;;;;0.10;0.10;;;;;;;6.02;100.00;102556.41;10400154;28;20075;-80
2023/03/03 19:16:35;;;;;;;0.00;0.00;;;;;;;6.35;100.00;102547.66;10414725;28;20049;-81
2023/03/03 19:21:38;;;;;;;0.10;0.10;;;;;;;6.26;100.00;102554.69;10404965;28;20037;-80
2023/03/03 19:27:01;;;;;;;0.03;0.03;;;;;;;5.88;100.00;102556.25;10391379;28;20123;-80
2023/03/03 19:32:42;;;;;;;0.10;0.10;;;;;;;6.09;100.00;102555.16;10390672;28;20047;-81
2023/03/03 19:37:56;;;;;;;;;;;;;;;6.03;100.00;102551.38;10393893;28;20049;-79
2023/03/03 19:43:07;;;;;;;0.10;0.10;;;;;;;6.10;100.00;102556.94;10389531;28;19925;-80
2023/03/03 19:48:17;;;;;;;0.00;0.00;;;;;;;6.07;100.00;102555.06;10393899;28;20037;-81
2023/03/03 19:53:33;;;;;;;0.00;0.00;;;;;;;5.68;100.00;102564.16;10393281;28;20778;-81
2023/03/03 19:58:57;;;;;;;0.90;0.63;;;;;;;5.82;100.00;102560.06;10388310;28;20092;-81
2023/03/03 20:04:29;;;;;;;0.43;0.32;;;;;;;5.85;100.00;102565.38;10390096;28;20060;-80
2023/03/03 20:09:43;;;;;;;0.00;0.00;;;;;;;5.64;100.00;102564.72;10391109;28;20556;-81
2023/03/03 20:15:08;;;;;;;0.00;0.00;;;;;;;5.96;100.00;102567.06;10408245;28;20060;-80
2023/03/03 20:20:30;;;;;;;0.65;0.63;;;;;;;5.94;100.00;102560.06;10391481;28;20090;-81
2023/03/03 20:25:55;;;;;;;1.10;0.63;;;;;;;5.85;100.00;102566.28;10382067;28;20042;-81
2023/03/03 20:31:09;;;;;;;5.30;1.02;;;;;;;6.06;100.00;102576.31;10362773;28;20044;-81
2023/03/03 20:36:22;;;;;;;0.00;0.00;;;;;;;5.83;100.00;102572.06;10386286;28;20069;-81
2023/03/03 20:42:15;;;;;;;2.05;0.88;;;;;;;5.93;100.00;102569.38;10382559;28;20045;-81
2023/03/03 20:47:42;;;;;;;0.00;0.00;;;;;;;6.10;100.00;102567.16;10348732;28;20100;-81
2023/03/03 20:53:18;;;;;;;0.00;0.00;;;;;;;6.18;100.00;102571.16;10365392;28;20431;-81
2023/03/03 20:58:32;;;;;;;0.22;0.08;;;;;;;5.84;100.00;102555.94;10408509;28;20477;-81
2023/03/03 21:03:37;;;;;;;0.00;0.00;;;;;;;5.99;100.00;102557.09;10381283;28;20516;-81
2023/03/03 21:08:52;;;;;;;0.00;0.00;;;;;;;6.05;100.00;102558.28;10368338;28;20378;-82
2023/03/03 21:13:54;;;;;;;0.00;0.00;;;;;;;5.70;100.00;102535.38;10391135;28;20053;-81
2023/03/03 21:19:10;;;;;;;0.45;0.35;;;;;;;6.02;100.00;102543.63;10390951;28;20485;-82
2023/03/03 21:24:18;;;;;;;0.15;0.15;;;;;;;6.02;100.00;102544.50;10406540;28;20054;-81
2023/03/03 21:29:31;;;;;;;0.00;0.00;;;;;;;5.92;100.00;102549.69;10373077;28;20053;-80
2023/03/03 21:34:39;;;;;;;1.95;0.32;;;;;;;5.95;100.00;102543.94;10415053;28;20041;-81
2023/03/03 21:39:45;;;;;;;0.10;0.10;;;;;;;6.17;100.00;102548.91;10393381;28;20084;-81
2023/03/03 21:44:49;;;;;;;0.25;0.17;;;;;;;5.77;100.00;102538.38;10397515;28;20317;-81
2023/03/03 21:49:51;;;;;;;0.00;0.00;;;;;;;6.04;100.00;102547.16;10405059;28;20111;-81
2023/03/03 21:54:54;;;;;;;0.00;0.00;;;;;;;6.19;100.00;102542.25;10373852;28;20053;-81
2023/03/03 21:59:56;;;;;;;0.00;0.00;;;;;;;5.90;100.00;102533.38;10383974;28;20077;-81
2023/03/03 22:04:58;;;;;;;0.00;0.00;;;;;;;6.10;100.00;102537.38;10388511;28;20041;-82
2023/03/03 22:09:59;;;;;;;0.00;0.00;;;;;;;5.88;100.00;102524.69;10385353;28;20073;-80
2023/03/03 22:15:01;;;;;;;0.00;0.00;;;;;;;6.00;100.00;102527.25;10404208;28;20091;-81
2023/03/03 22:20:03;;;;;;;0.98;0.57;;;;;;;5.93;100.00;102533.56;10397447;28;20037;-81
2023/03/03 22:25:05;;;;;;;0.75;0.75;;;;;;;5.95;100.00;102537.13;10393216;28;20072;-81
2023/03/03 22:30:08;;;;;;;0.32;0.25;;;;;;;5.76;100.00;102539.16;10393356;28;20048;-81
2023/03/03 22:35:09;;;;;;;0.00;0.00;;;;;;;5.84;100.00;102538.94;10415843;28;20470;-81
2023/03/03 22:40:11;;;;;;;0.00;0.00;;;;;;;6.03;100.00;102530.91;10394024;28;20044;-76
2023/03/03 22:45:13;;;;;;;0.80;0.80;;;;;;;6.26;100.00;102533.31;10417637;28;20070;-77
2023/03/03 22:50:16;;;;;;;1.85;0.75;;;;;;;6.25;100.00;102537.53;10416906;28;20058;-77
2023/03/03 22:55:18;;;;;;;0.00;0.00;;;;;;;6.29;100.00;102538.66;10400693;28;20103;-77
2023/03/03 23:00:20;;;;;;;0.20;0.20;;;;;;;5.98;100.00;102531.34;10383873;28;20508;-77
2023/03/03 23:05:22;;;;;;;0.00;0.00;;;;;;;5.71;100.00;102534.59;10377971;28;20054;-77
2023/03/03 23:10:24;;;;;;;0.17;0.10;;;;;;;6.01;100.00;102537.59;10391909;28;20500;-77
2023/03/03 23:15:26;;;;;;;0.20;0.05;;;;;;;5.74;100.00;102535.59;10398147;28;20057;-77
2023/03/03 23:20:29;;;;;;;0.00;0.00;;;;;;;5.86;100.00;102534.81;10398063;28;20444;-77
2023/03/03 23:25:31;;;;;;;0.00;0.00;;;;;;;6.09;100.00;102534.69;10399075;28;20168;-75
2023/03/03 23:30:33;;;;;;;0.00;0.00;;;;;;;5.89;100.00;102529.03;10374183;28;20049;-76
2023/03/03 23:35:34;;;;;;;0.05;0.05;;;;;;;5.84;100.00;102532.94;10398204;28;20050;-76
2023/03/03 23:40:36;;;;;;;0.00;0.00;;;;;;;5.85;100.00;102534.69;10399624;28;20053;-76
2023/03/03 23:45:38;;;;;;;0.80;0.52;;;;;;;5.79;100.00;102531.69;10388461;28;20049;-75
2023/03/03 23:50:39;;;;;;;0.00;0.00;;;;;;;5.59;100.00;102526.03;10400506;28;20512;-74